Time;durP1;ratioP1;P1;durP2;ratioP2;P2;SDS_P1;SDS_P2;PMS_P1;PMS_P2;Temp;Humidity;BMP_temperature;BMP_pressure;BME280_temperature;BME280_humidity;BME280_pressure;Samples;Min_cycle;Max_cycle;Signal;HPM_P1;HPM_P2
2022/06/18 00:01:58;;;;;;;12.60;11.70;;;22.60;92.20;;;;;;5058266;28;20856;-67
2022/06/18 00:04:26;;;;;;;12.47;11.77;;;22.60;92.30;;;;;;5057846;28;20459;-67
2022/06/18 00:06:55;;;;;;;12.33;11.60;;;22.60;92.40;;;;;;5060833;28;20485;-67
2022/06/18 00:09:27;;;;;;;12.80;12.00;;;22.60;92.60;;;;;;5054659;28;20482;-68
2022/06/18 00:14:45;;;;;;;12.63;11.93;;;22.50;92.40;;;;;;5038568;28;20477;-67
2022/06/18 00:17:14;;;;;;;17.63;11.70;;;22.50;92.30;;;;;;5054699;28;20463;-67
2022/06/18 00:19:41;;;;;;;12.70;11.80;;;22.50;92.30;;;;;;5057624;28;20494;-68
2022/06/18 00:22:12;;;;;;;13.03;11.80;;;22.50;92.40;;;;;;5058899;28;20478;-67
2022/06/18 00:24:41;;;;;;;12.70;11.90;;;22.50;92.60;;;;;;5061583;28;20462;-68
2022/06/18 00:27:10;;;;;;;13.33;12.37;;;22.40;92.70;;;;;;5052814;28;20463;-67
2022/06/18 00:29:38;;;;;;;13.00;12.07;;;22.30;92.90;;;;;;5055445;28;20463;-67
2022/06/18 00:32:06;;;;;;;13.50;12.40;;;22.20;93.30;;;;;;5057045;28;20470;-67
2022/06/18 00:34:33;;;;;;;13.43;12.20;;;22.10;93.50;;;;;;5055150;28;20982;-67
2022/06/18 00:37:02;;;;;;;17.67;12.40;;;22.10;93.80;;;;;;5061755;28;20533;-67
2022/06/18 00:39:31;;;;;;;12.93;11.80;;;22.00;94.00;;;;;;5058098;28;20469;-67
2022/06/18 00:42:05;;;;;;;12.77;12.07;;;21.90;94.10;;;;;;5058223;28;20466;-67
2022/06/18 00:44:35;;;;;;;12.40;11.80;;;21.90;94.40;;;;;;5054551;28;20469;-68
2022/06/18 00:47:15;;;;;;;12.50;11.77;;;21.80;94.70;;;;;;5059039;28;21041;-67
2022/06/18 00:49:49;;;;;;;12.83;12.00;;;21.70;95.20;;;;;;5054575;28;20667;-68
2022/06/18 00:52:22;;;;;;;13.53;12.20;;;21.60;95.70;;;;;;5063749;28;20455;-68
2022/06/18 00:54:53;;;;;;;12.80;12.00;;;21.50;95.80;;;;;;5059675;28;20961;-67
2022/06/18 00:57:28;;;;;;;13.10;12.30;;;21.60;95.60;;;;;;5060195;28;20465;-67
2022/06/18 01:00:00;;;;;;;12.53;11.83;;;21.70;95.60;;;;;;5056321;28;20996;-67
2022/06/18 01:02:31;;;;;;;12.10;11.60;;;21.70;95.70;;;;;;5058202;28;20466;-67
2022/06/18 01:04:59;;;;;;;12.40;11.80;;;21.70;95.70;;;;;;5055437;28;20464;-67
2022/06/18 01:07:30;;;;;;;12.67;12.00;;;21.60;96.00;;;;;;5056983;28;20558;-67
2022/06/18 01:10:00;;;;;;;12.60;11.83;;;21.50;96.30;;;;;;5052506;28;20494;-67
2022/06/18 01:12:31;;;;;;;12.60;11.87;;;21.50;96.40;;;;;;5057157;28;20549;-67
2022/06/18 01:15:01;;;;;;;11.67;11.03;;;21.50;96.70;;;;;;5057018;28;20826;-67
2022/06/18 01:17:30;;;;;;;12.77;11.90;;;21.40;97.10;;;;;;5057833;28;20804;-68
2022/06/18 01:19:59;;;;;;;12.47;11.33;;;21.30;97.30;;;;;;5057742;28;20505;-67
2022/06/18 01:22:35;;;;;;;11.80;11.17;;;21.20;97.50;;;;;;5056786;28;20460;-67
2022/06/18 01:25:06;;;;;;;12.47;11.67;;;21.10;97.70;;;;;;5057890;28;20979;-67
2022/06/18 01:27:34;;;;;;;13.03;12.03;;;21.10;97.80;;;;;;5053955;28;20648;-67
2022/06/18 01:30:05;;;;;;;12.57;11.40;;;21.10;97.90;;;;;;5061259;28;20479;-67
2022/06/18 01:32:32;;;;;;;11.93;11.23;;;21.10;97.90;;;;;;5057120;28;20463;-67
2022/06/18 01:35:00;;;;;;;12.47;11.67;;;21.10;97.90;;;;;;5060739;28;20473;-67
2022/06/18 01:37:27;;;;;;;12.57;11.87;;;21.10;98.40;;;;;;5056300;28;20459;-67
2022/06/18 01:39:56;;;;;;;11.43;10.93;;;21.00;98.70;;;;;;5054653;28;20452;-67
2022/06/18 01:42:28;;;;;;;12.60;11.70;;;20.90;99.30;;;;;;5057406;28;20463;-67
2022/06/18 01:44:58;;;;;;;12.20;11.50;;;20.90;99.30;;;;;;5052730;28;20470;-68
2022/06/18 01:47:30;;;;;;;12.73;11.93;;;21.00;99.20;;;;;;5056926;28;20495;-67
2022/06/18 01:50:03;;;;;;;13.23;11.93;;;21.00;99.20;;;;;;5057557;28;20464;-67
2022/06/18 01:52:34;;;;;;;11.70;11.00;;;21.00;98.90;;;;;;5055683;28;20459;-67
2022/06/18 01:55:07;;;;;;;13.30;12.50;;;21.10;98.90;;;;;;5057166;28;20555;-67
2022/06/18 01:57:41;;;;;;;12.77;11.53;;;21.20;98.80;;;;;;5058695;28;20455;-67
2022/06/18 02:00:12;;;;;;;12.83;11.80;;;21.20;98.40;;;;;;5052137;28;20463;-67
2022/06/18 02:02:40;;;;;;;12.03;11.37;;;21.30;98.20;;;;;;5053364;28;20962;-67
2022/06/18 02:05:08;;;;;;;17.00;12.57;;;21.30;98.10;;;;;;5052947;28;20464;-67
2022/06/18 02:07:35;;;;;;;11.40;10.90;;;21.30;97.90;;;;;;5055329;28;20803;-67
2022/06/18 02:10:06;;;;;;;13.03;11.87;;;21.40;97.70;;;;;;5052364;28;20517;-67
2022/06/18 02:12:39;;;;;;;11.80;11.30;;;21.40;97.50;;;;;;5052052;28;20455;-67
2022/06/18 02:15:12;;;;;;;12.47;11.53;;;21.50;97.60;;;;;;5057084;28;20559;-67
2022/06/18 02:17:41;;;;;;;12.70;12.10;;;21.60;97.30;;;;;;5056880;28;20471;-67
2022/06/18 02:20:12;;;;;;;11.67;11.07;;;21.50;97.40;;;;;;5052364;28;20479;-67
2022/06/18 02:22:43;;;;;;;12.03;11.23;;;21.50;97.60;;;;;;5057886;28;20471;-67
2022/06/18 02:25:12;;;;;;;11.87;11.37;;;21.50;97.50;;;;;;5059078;28;20474;-67
2022/06/18 02:27:42;;;;;;;12.30;11.43;;;21.40;97.80;;;;;;5050557;28;20475;-67
2022/06/18 02:30:16;;;;;;;12.33;11.50;;;21.40;98.00;;;;;;5055322;28;20543;-67
2022/06/18 02:32:51;;;;;;;12.37;11.57;;;21.40;98.10;;;;;;5048993;28;20915;-67
2022/06/18 02:35:19;;;;;;;12.10;11.50;;;21.40;98.30;;;;;;5052533;28;20467;-67
2022/06/18 02:37:46;;;;;;;11.70;11.13;;;21.40;98.30;;;;;;5052496;28;20950;-67
2022/06/18 02:40:19;;;;;;;12.37;11.57;;;21.40;98.40;;;;;;5052506;28;20817;-66
2022/06/18 02:42:49;;;;;;;11.57;10.90;;;21.20;99.10;;;;;;5061870;28;20521;-67
2022/06/18 02:45:18;;;;;;;12.23;11.63;;;21.20;99.40;;;;;;5056495;28;20503;-67
2022/06/18 02:47:46;;;;;;;12.17;11.47;;;21.00;99.90;;;;;;5055588;28;20460;-67
2022/06/18 02:50:18;;;;;;;12.43;11.67;;;20.70;99.90;;;;;;5051778;28;20462;-67
2022/06/18 02:52:50;;;;;;;16.33;11.53;;;20.50;99.90;;;;;;5054212;28;20462;-67
2022/06/18 02:55:23;;;;;;;12.37;11.77;;;20.60;99.90;;;;;;5056265;28;20858;-67
2022/06/18 02:57:56;;;;;;;12.60;11.80;;;20.50;99.90;;;;;;5049161;28;20467;-68
2022/06/18 03:00:23;;;;;;;12.80;12.07;;;20.70;99.90;;;;;;5061651;28;20460;-67
2022/06/18 03:02:50;;;;;;;12.63;11.87;;;20.60;99.90;;;;;;5048616;28;20830;-67
2022/06/18 03:05:20;;;;;;;12.60;11.73;;;20.50;99.90;;;;;;5059283;28;20474;-67
2022/06/18 03:07:47;;;;;;;12.63;11.83;;;20.40;99.90;;;;;;5052580;28;20455;-67
2022/06/18 03:13:04;;;;;;;11.93;11.23;;;20.10;99.90;;;;;;5053201;28;20532;-67
2022/06/18 03:15:31;;;;;;;12.00;11.20;;;20.00;99.90;;;;;;5050866;28;20475;-67
2022/06/18 03:17:58;;;;;;;11.80;11.20;;;19.80;99.90;;;;;;5057927;28;20464;-67
2022/06/18 03:20:35;;;;;;;12.80;11.70;;;19.60;99.90;;;;;;5057954;28;20485;-67
2022/06/18 03:23:05;;;;;;;12.03;11.00;;;19.50;99.90;;;;;;5058979;28;20458;-67
2022/06/18 03:25:31;;;;;;;11.93;11.10;;;19.40;99.90;;;;;;5056516;28;20470;-67
2022/06/18 03:28:00;;;;;;;11.17;10.47;;;19.30;99.90;;;;;;5057838;28;20467;-67
2022/06/18 03:30:28;;;;;;;12.70;11.20;;;19.30;99.90;;;;;;5052045;28;20467;-67
2022/06/18 03:32:55;;;;;;;12.03;11.40;;;19.30;99.90;;;;;;5058299;28;20457;-67
2022/06/18 03:35:22;;;;;;;11.07;10.40;;;19.20;99.90;;;;;;5052208;28;20466;-67
2022/06/18 03:37:49;;;;;;;10.97;10.20;;;19.20;99.90;;;;;;5056248;28;20469;-67
2022/06/18 03:40:16;;;;;;;11.97;10.77;;;19.10;99.90;;;;;;5057514;28;20525;-67
2022/06/18 03:42:43;;;;;;;11.10;10.40;;;19.10;99.90;;;;;;5056389;28;20528;-67
2022/06/18 03:45:13;;;;;;;11.50;10.70;;;19.20;99.90;;;;;;5057146;28;20816;-67
2022/06/18 03:47:40;;;;;;;11.50;10.80;;;19.20;99.90;;;;;;5055400;28;20530;-67
2022/06/18 03:50:13;;;;;;;10.67;9.93;;;19.30;99.90;;;;;;5056022;28;20971;-67
2022/06/18 03:52:40;;;;;;;10.57;9.97;;;19.40;99.90;;;;;;5054213;28;20483;-67
2022/06/18 03:55:09;;;;;;;11.73;11.00;;;19.30;99.90;;;;;;5052914;28;20462;-66
2022/06/18 03:57:37;;;;;;;10.97;10.47;;;19.40;99.90;;;;;;5053236;28;20966;-67
2022/06/18 04:00:05;;;;;;;11.87;11.17;;;19.60;99.90;;;;;;5058509;28;20471;-66
2022/06/18 04:02:33;;;;;;;11.00;10.43;;;19.60;99.90;;;;;;5041901;28;20544;-66
2022/06/18 04:05:00;;;;;;;13.13;11.00;;;19.50;99.90;;;;;;5032467;28;20997;-67
2022/06/18 04:07:27;;;;;;;11.43;10.53;;;19.60;99.90;;;;;;5031583;28;20993;-67
2022/06/18 04:09:56;;;;;;;12.17;11.40;;;19.70;99.90;;;;;;5032225;28;22487;-68
2022/06/18 04:12:23;;;;;;;11.93;11.00;;;19.70;99.90;;;;;;5031401;28;20931;-67
2022/06/18 04:14:50;;;;;;;11.67;10.97;;;19.80;99.90;;;;;;5031922;28;20470;-66
2022/06/18 04:17:17;;;;;;;11.73;10.90;;;19.90;99.90;;;;;;5031430;28;20491;-67
2022/06/18 04:19:46;;;;;;;11.70;11.00;;;19.90;99.90;;;;;;5031860;28;20509;-68
2022/06/18 04:22:13;;;;;;;11.97;11.37;;;20.10;99.90;;;;;;5030807;28;20455;-67
2022/06/18 04:24:40;;;;;;;12.87;11.77;;;20.30;99.90;;;;;;5032109;28;20464;-68
2022/06/18 04:27:08;;;;;;;12.47;11.33;;;20.50;99.90;;;;;;5030774;28;20979;-68
2022/06/18 04:29:35;;;;;;;13.07;12.27;;;20.50;99.90;;;;;;5032190;28;20452;-67
2022/06/18 04:32:04;;;;;;;12.83;11.70;;;20.70;99.90;;;;;;5031754;28;20487;-67
2022/06/18 04:34:31;;;;;;;12.70;11.80;;;20.80;99.90;;;;;;5031682;28;20471;-67
2022/06/18 04:36:59;;;;;;;11.90;11.20;;;21.00;99.90;;;;;;5030837;28;21022;-67
2022/06/18 04:39:26;;;;;;;12.33;11.50;;;21.10;99.90;;;;;;5031965;28;20456;-67
2022/06/18 04:41:52;;;;;;;12.90;12.10;;;21.20;99.90;;;;;;5031726;28;20569;-67
2022/06/18 04:44:19;;;;;;;12.90;12.00;;;21.40;99.90;;;;;;5030655;28;21062;-67
2022/06/18 04:46:46;;;;;;;13.30;12.20;;;21.50;99.90;;;;;;5031012;28;21254;-67
2022/06/18 04:49:14;;;;;;;12.90;12.20;;;21.60;99.90;;;;;;5032023;28;20534;-68
2022/06/18 04:51:41;;;;;;;12.60;11.70;;;21.60;99.90;;;;;;5031675;28;20486;-67
2022/06/18 04:54:09;;;;;;;12.57;11.97;;;21.70;99.90;;;;;;5031418;28;21052;-68
2022/06/18 04:56:35;;;;;;;12.73;11.97;;;21.70;99.90;;;;;;5030746;28;20463;-67
2022/06/18 04:59:02;;;;;;;12.63;11.93;;;21.80;99.90;;;;;;5031342;28;20476;-67
2022/06/18 05:01:30;;;;;;;13.33;12.60;;;21.90;99.90;;;;;;5030881;28;20467;-67
2022/06/18 05:03:58;;;;;;;11.80;11.30;;;22.00;99.90;;;;;;5031387;28;20464;-68
2022/06/18 05:06:25;;;;;;;12.80;12.00;;;22.10;99.90;;;;;;5030791;28;20460;-68
2022/06/18 05:08:52;;;;;;;13.60;12.83;;;22.10;99.90;;;;;;5031493;28;20500;-68
2022/06/18 05:11:20;;;;;;;13.53;12.50;;;22.20;99.90;;;;;;5030524;28;20460;-67
2022/06/18 05:13:47;;;;;;;12.60;11.70;;;22.30;99.90;;;;;;5031137;28;20466;-67
2022/06/18 05:16:15;;;;;;;12.73;12.03;;;22.30;99.90;;;;;;5030864;28;20925;-68
2022/06/18 05:18:45;;;;;;;13.10;12.10;;;22.40;99.90;;;;;;5031088;28;20467;-68
2022/06/18 05:21:12;;;;;;;12.93;12.20;;;22.50;99.90;;;;;;5031596;28;20669;-68
2022/06/18 05:23:39;;;;;;;13.27;12.37;;;22.60;99.90;;;;;;5030031;28;20464;-68
2022/06/18 05:26:06;;;;;;;13.53;12.27;;;22.70;99.90;;;;;;5031024;28;20507;-67
2022/06/18 05:28:35;;;;;;;12.67;12.00;;;22.80;99.90;;;;;;5031220;28;20482;-68
2022/06/18 05:31:03;;;;;;;13.70;12.57;;;23.00;99.90;;;;;;5031905;28;20611;-67
2022/06/18 05:33:30;;;;;;;12.87;11.93;;;23.10;99.90;;;;;;5030239;28;20498;-68
2022/06/18 05:35:57;;;;;;;13.00;12.30;;;23.10;99.90;;;;;;5030599;28;20807;-68
2022/06/18 05:38:24;;;;;;;13.13;12.23;;;23.20;99.90;;;;;;5030904;28;20467;-68
2022/06/18 05:40:51;;;;;;;12.77;11.97;;;23.30;99.90;;;;;;5031032;28;20468;-67
2022/06/18 05:43:19;;;;;;;14.20;13.30;;;23.30;99.90;;;;;;5030791;28;20479;-68
2022/06/18 05:45:48;;;;;;;13.77;12.70;;;23.40;99.90;;;;;;5029356;28;20460;-68
2022/06/18 05:48:15;;;;;;;14.50;13.17;;;23.50;99.90;;;;;;5050526;28;21106;-67
2022/06/18 05:50:42;;;;;;;15.27;13.77;;;23.60;99.90;;;;;;5048619;28;20929;-67
2022/06/18 05:53:10;;;;;;;13.00;12.30;;;23.60;99.90;;;;;;5053712;28;20497;-67
2022/06/18 05:55:37;;;;;;;13.47;12.47;;;23.70;99.90;;;;;;5051998;28;20966;-67
2022/06/18 05:58:04;;;;;;;12.90;12.30;;;23.80;99.90;;;;;;5029917;28;20470;-68
2022/06/18 06:00:32;;;;;;;12.97;12.27;;;24.00;99.90;;;;;;5029397;28;20474;-68
2022/06/18 06:03:01;;;;;;;13.20;12.10;;;24.10;99.90;;;;;;5027240;28;20893;-68
2022/06/18 06:05:28;;;;;;;14.20;13.07;;;24.20;99.90;;;;;;5028529;28;20821;-67
2022/06/18 06:07:55;;;;;;;13.87;13.03;;;24.30;99.90;;;;;;5027233;28;21209;-68
2022/06/18 06:13:10;;;;;;;14.10;13.23;;;24.70;99.90;;;;;;5028036;28;20572;-68
2022/06/18 06:15:38;;;;;;;13.50;12.70;;;24.70;99.90;;;;;;5027515;28;20798;-68
2022/06/18 06:18:07;;;;;;;13.73;12.70;;;24.80;99.90;;;;;;5027889;28;20459;-67
2022/06/18 06:20:38;;;;;;;12.97;12.27;;;24.90;99.90;;;;;;5027599;28;21850;-68
2022/06/18 06:23:05;;;;;;;14.20;13.30;;;25.00;99.90;;;;;;5028304;28;20891;-67
2022/06/18 06:25:32;;;;;;;14.27;12.83;;;25.10;99.90;;;;;;5027103;28;20479;-68
2022/06/18 06:27:59;;;;;;;14.00;12.80;;;25.20;99.90;;;;;;5028090;28;20459;-67
2022/06/18 06:30:27;;;;;;;14.40;13.27;;;25.30;99.90;;;;;;5026075;28;20885;-68
2022/06/18 06:32:54;;;;;;;13.47;12.57;;;25.20;99.90;;;;;;5028013;28;20919;-67
2022/06/18 06:35:23;;;;;;;14.30;13.00;;;25.30;99.90;;;;;;5028014;28;20488;-66
2022/06/18 06:37:50;;;;;;;14.33;13.47;;;25.50;99.90;;;;;;5027909;28;20463;-67
2022/06/18 06:40:17;;;;;;;14.57;13.77;;;25.50;99.90;;;;;;5027282;28;20468;-68
2022/06/18 06:42:46;;;;;;;13.87;13.07;;;25.60;99.90;;;;;;5028205;28;20467;-68
2022/06/18 06:45:15;;;;;;;14.03;13.33;;;25.70;99.90;;;;;;5027830;28;20849;-68
2022/06/18 06:47:42;;;;;;;14.53;13.70;;;25.90;99.90;;;;;;5026895;28;20478;-68
2022/06/18 06:50:10;;;;;;;14.80;13.90;;;26.10;99.90;;;;;;5026798;28;20474;-68
2022/06/18 06:52:39;;;;;;;14.57;13.57;;;26.20;99.90;;;;;;5027265;28;20557;-68
2022/06/18 06:57:54;;;;;;;13.83;12.90;;;26.40;99.90;;;;;;5027869;28;20495;-68
2022/06/18 07:00:21;;;;;;;14.37;13.57;;;26.40;99.90;;;;;;5027640;28;20868;-68
2022/06/18 07:02:48;;;;;;;14.07;13.27;;;26.50;99.90;;;;;;5032308;28;20463;-67
2022/06/18 07:05:16;;;;;;;14.00;13.13;;;26.70;99.90;;;;;;5056270;28;20464;-68
2022/06/18 07:07:44;;;;;;;15.03;13.50;;;26.90;99.90;;;;;;5055323;28;20665;-67
2022/06/18 07:10:12;;;;;;;16.37;14.70;;;26.90;99.90;;;;;;5026424;28;20494;-68
2022/06/18 07:12:39;;;;;;;14.83;13.60;;;26.90;99.90;;;;;;5027159;28;20897;-68
2022/06/18 07:15:08;;;;;;;15.30;14.07;;;27.00;99.90;;;;;;5026246;28;20456;-67
2022/06/18 07:17:35;;;;;;;15.57;14.33;;;27.10;99.90;;;;;;5026463;28;20464;-67
2022/06/18 07:20:02;;;;;;;14.57;13.77;;;27.40;99.90;;;;;;5026694;28;20501;-68
2022/06/18 07:22:29;;;;;;;15.43;14.17;;;27.40;98.80;;;;;;5027156;28;21095;-68
2022/06/18 07:24:58;;;;;;;15.13;14.13;;;27.50;99.40;;;;;;5026443;28;20557;-68
2022/06/18 07:27:25;;;;;;;15.67;14.57;;;27.60;99.50;;;;;;5027294;28;20464;-68
2022/06/18 07:29:53;;;;;;;15.03;14.03;;;27.70;98.10;;;;;;5027320;28;20468;-67
2022/06/18 07:32:21;;;;;;;15.10;14.20;;;27.70;99.50;;;;;;5026836;28;20494;-68
2022/06/18 07:34:48;;;;;;;15.87;14.57;;;27.80;97.50;;;;;;5026876;28;21457;-68
2022/06/18 07:37:15;;;;;;;17.20;15.40;;;27.80;97.10;;;;;;5026503;28;20472;-68
2022/06/18 07:39:42;;;;;;;15.93;14.80;;;28.00;97.80;;;;;;5026856;28;20985;-68
2022/06/18 07:42:12;;;;;;;15.27;13.90;;;28.00;98.50;;;;;;5027057;28;20473;-68
2022/06/18 07:44:39;;;;;;;15.27;14.30;;;28.20;98.20;;;;;;5026051;28;20467;-68
2022/06/18 07:47:07;;;;;;;14.57;13.77;;;28.40;98.10;;;;;;5029806;28;20470;-68
2022/06/18 07:49:34;;;;;;;15.30;13.87;;;28.60;98.10;;;;;;5048337;28;20487;-68
2022/06/18 07:52:01;;;;;;;15.70;14.53;;;28.80;97.80;;;;;;5050881;28;20470;-67
2022/06/18 07:54:28;;;;;;;15.77;14.67;;;28.90;97.90;;;;;;5027349;28;20475;-68
2022/06/18 07:56:55;;;;;;;14.60;13.57;;;28.90;94.30;;;;;;5026752;28;20463;-68
2022/06/18 07:59:24;;;;;;;16.57;14.70;;;28.90;93.00;;;;;;5026946;28;20712;-68
2022/06/18 08:01:52;;;;;;;15.93;14.93;;;28.90;94.20;;;;;;5026672;28;20882;-68
2022/06/18 08:04:19;;;;;;;17.03;15.40;;;29.00;92.80;;;;;;5027114;28;20491;-68
2022/06/18 08:06:46;;;;;;;16.10;14.83;;;29.50;93.40;;;;;;5025854;28;20989;-68
2022/06/18 08:09:14;;;;;;;16.67;15.43;;;30.10;91.10;;;;;;5026408;28;20576;-68
2022/06/18 08:11:41;;;;;;;16.73;15.27;;;30.50;88.70;;;;;;5026872;28;20452;-68
2022/06/18 08:14:08;;;;;;;16.90;15.70;;;30.50;87.10;;;;;;5026690;28;20488;-68
2022/06/18 08:16:37;;;;;;;16.37;15.00;;;30.80;86.30;;;;;;5012830;28;20831;-67
2022/06/18 08:19:03;;;;;;;16.60;15.00;;;31.20;84.40;;;;;;5019852;28;20991;-68
2022/06/18 08:21:35;;;;;;;17.50;16.10;;;31.30;82.90;;;;;;5025409;28;20460;-68
2022/06/18 08:24:05;;;;;;;16.17;15.07;;;31.70;80.80;;;;;;5025005;28;20471;-68
2022/06/18 08:26:33;;;;;;;16.77;15.50;;;31.50;79.60;;;;;;5024191;28;20514;-68
2022/06/18 08:29:02;;;;;;;15.73;14.73;;;31.70;78.00;;;;;;5024658;28;20463;-69
2022/06/18 08:31:29;;;;;;;15.90;14.80;;;31.80;78.50;;;;;;5024503;28;20477;-68
2022/06/18 08:33:58;;;;;;;15.60;14.40;;;32.30;78.80;;;;;;5024468;28;20502;-69
2022/06/18 08:36:26;;;;;;;16.27;15.07;;;32.90;78.60;;;;;;5024323;28;20467;-68
2022/06/18 08:38:54;;;;;;;15.50;14.37;;;32.70;75.40;;;;;;5023523;28;20476;-69
2022/06/18 08:41:40;;;;;;;15.83;14.60;;;32.60;74.00;;;;;;5023744;28;21179;-69
2022/06/18 08:44:31;;;;;;;16.43;15.50;;;32.80;72.00;;;;;;5024742;28;20720;-69
2022/06/18 08:47:10;;;;;;;16.03;14.80;;;32.80;70.40;;;;;;5023169;28;20475;-68
2022/06/18 08:50:08;;;;;;;16.53;15.03;;;32.70;71.10;;;;;;5023525;28;20581;-69
2022/06/18 08:52:58;;;;;;;15.93;14.83;;;33.00;71.50;;;;;;5010880;28;20645;-67
2022/06/18 08:55:29;;;;;;;16.50;15.30;;;33.30;71.50;;;;;;5021513;28;20468;-68
2022/06/18 08:58:02;;;;;;;16.17;14.97;;;33.70;69.50;;;;;;5022943;28;20490;-68
2022/06/18 09:00:34;;;;;;;17.23;15.73;;;33.50;68.40;;;;;;5023294;28;20474;-69
2022/06/18 09:03:08;;;;;;;17.10;16.00;;;33.90;69.20;;;;;;5030613;28;20470;-68
2022/06/18 09:05:48;;;;;;;16.80;15.50;;;34.60;68.90;;;;;;5046412;28;20479;-68
2022/06/18 09:08:34;;;;;;;16.80;15.73;;;34.90;64.50;;;;;;5048217;28;20467;-68
2022/06/18 09:11:19;;;;;;;17.20;15.80;;;34.90;62.40;;;;;;5051202;28;20469;-68
2022/06/18 09:13:57;;;;;;;16.80;14.97;;;34.70;60.50;;;;;;5025259;28;20497;-68
2022/06/18 09:16:29;;;;;;;16.20;14.90;;;34.50;59.60;;;;;;5027724;28;20467;-68
2022/06/18 09:18:58;;;;;;;16.97;15.60;;;34.50;61.20;;;;;;5029103;28;20460;-69
2022/06/18 09:21:29;;;;;;;16.93;15.73;;;34.90;59.70;;;;;;5028194;28;20472;-69
2022/06/18 09:24:02;;;;;;;16.20;15.07;;;35.40;58.60;;;;;;5026945;28;20459;-69
2022/06/18 09:26:36;;;;;;;16.33;15.00;;;35.20;59.60;;;;;;5039218;28;20487;-68
2022/06/18 09:29:13;;;;;;;16.27;15.27;;;35.60;58.80;;;;;;5050717;28;20459;-68
2022/06/18 09:31:45;;;;;;;17.20;15.80;;;36.20;57.60;;;;;;5029944;28;20467;-68
2022/06/18 09:34:21;;;;;;;16.90;15.50;;;36.30;57.40;;;;;;5027016;28;20499;-68
2022/06/18 09:36:53;;;;;;;16.70;15.40;;;36.70;54.70;;;;;;5028643;28;20974;-68
2022/06/18 09:39:24;;;;;;;18.80;16.10;;;36.50;56.00;;;;;;5028614;28;20569;-68
2022/06/18 09:42:00;;;;;;;17.33;15.77;;;36.50;54.50;;;;;;5027751;28;20472;-68
2022/06/18 09:44:36;;;;;;;17.50;15.70;;;35.50;55.30;;;;;;5026920;28;20451;-69
2022/06/18 09:47:07;;;;;;;16.57;15.57;;;35.90;53.30;;;;;;5027796;28;20460;-68
2022/06/18 09:49:35;;;;;;;16.03;15.00;;;35.80;52.90;;;;;;5028105;28;20483;-69
2022/06/18 09:52:08;;;;;;;16.77;15.60;;;35.50;53.50;;;;;;5028889;28;20479;-68
2022/06/18 09:54:38;;;;;;;16.67;14.93;;;35.20;53.50;;;;;;5027553;28;20507;-68
2022/06/18 09:57:05;;;;;;;16.80;15.33;;;35.40;52.40;;;;;;5026909;28;20602;-68
2022/06/18 09:59:36;;;;;;;16.63;15.50;;;35.70;52.70;;;;;;5027946;28;20472;-68
2022/06/18 10:02:14;;;;;;;17.43;16.03;;;36.10;52.10;;;;;;5026148;28;20491;-69
2022/06/18 10:07:32;;;;;;;16.40;15.00;;;36.10;52.70;;;;;;5028887;28;20514;-69
2022/06/18 10:10:04;;;;;;;17.43;15.80;;;37.00;52.00;;;;;;5028617;28;22517;-70
2022/06/18 10:12:34;;;;;;;16.63;15.23;;;37.00;51.50;;;;;;5028469;28;20471;-69
2022/06/18 10:15:06;;;;;;;16.93;15.73;;;37.00;51.00;;;;;;5027147;28;20479;-69
2022/06/18 10:17:57;;;;;;;16.60;14.77;;;37.30;53.30;;;;;;5028132;28;20460;-68
2022/06/18 10:20:32;;;;;;;16.63;15.33;;;37.60;50.60;;;;;;5026868;28;20919;-69
2022/06/18 10:23:10;;;;;;;16.20;15.10;;;37.20;50.30;;;;;;5027771;28;20451;-70
2022/06/18 10:25:42;;;;;;;16.13;14.90;;;37.10;50.40;;;;;;5026994;28;20619;-69
2022/06/18 10:28:24;;;;;;;14.77;13.83;;;37.30;52.50;;;;;;5027687;28;20887;-69
2022/06/18 10:31:00;;;;;;;14.30;13.30;;;37.90;50.20;;;;;;5026543;28;20464;-69
2022/06/18 10:33:37;;;;;;;14.87;13.30;;;37.90;49.10;;;;;;5027606;28;21017;-69
2022/06/18 10:36:15;;;;;;;13.70;13.00;;;37.90;48.40;;;;;;5028019;28;20576;-69
2022/06/18 10:39:06;;;;;;;15.27;14.03;;;38.50;48.90;;;;;;5027774;28;20988;-69
2022/06/18 10:41:42;;;;;;;15.00;13.50;;;38.60;48.40;;;;;;5027090;28;20499;-69
2022/06/18 10:44:22;;;;;;;16.63;13.53;;;38.30;46.70;;;;;;5026276;28;20462;-69
2022/06/18 10:47:00;;;;;;;13.87;12.57;;;37.90;47.20;;;;;;5026490;28;20470;-69
2022/06/18 10:49:27;;;;;;;14.47;13.07;;;37.00;47.10;;;;;;5053170;28;20960;-69
2022/06/18 10:51:54;;;;;;;15.40;14.20;;;37.30;48.00;;;;;;5057687;28;20467;-69
2022/06/18 10:54:31;;;;;;;13.87;13.07;;;37.50;48.50;;;;;;5032386;28;20586;-69
2022/06/18 10:56:58;;;;;;;14.63;13.63;;;37.40;48.90;;;;;;5027360;28;20467;-69
2022/06/18 10:59:30;;;;;;;14.37;13.37;;;37.70;49.50;;;;;;5024792;28;22518;-69
2022/06/18 11:02:05;;;;;;;14.60;13.60;;;38.20;48.00;;;;;;5029212;28;20543;-69
2022/06/18 11:04:33;;;;;;;15.40;13.77;;;38.20;46.40;;;;;;5038667;28;20694;-70
2022/06/18 11:07:02;;;;;;;14.90;13.80;;;38.70;48.40;;;;;;5026341;28;20475;-70
2022/06/18 11:09:34;;;;;;;16.00;15.00;;;38.50;46.00;;;;;;5026995;28;20491;-69
2022/06/18 11:12:05;;;;;;;15.80;15.00;;;38.70;46.90;;;;;;5026075;28;20459;-69
2022/06/18 11:14:39;;;;;;;15.23;14.03;;;38.80;45.60;;;;;;5028076;28;20503;-69
2022/06/18 11:17:20;;;;;;;15.80;14.50;;;39.50;45.90;;;;;;5026789;28;20772;-70
2022/06/18 11:19:48;;;;;;;16.33;14.87;;;39.60;45.70;;;;;;5026526;28;23057;-69
2022/06/18 11:22:18;;;;;;;17.70;16.10;;;39.70;44.90;;;;;;5025834;28;21432;-69
2022/06/18 11:24:54;;;;;;;23.07;15.33;;;39.40;45.50;;;;;;5025408;28;20479;-69
2022/06/18 11:27:21;;;;;;;15.80;14.37;;;39.40;45.30;;;;;;5026658;28;20463;-69
2022/06/18 11:29:50;;;;;;;15.37;14.17;;;39.90;44.40;;;;;;5027117;28;22273;-69
2022/06/18 11:32:21;;;;;;;17.67;14.90;;;40.20;42.90;;;;;;5026214;28;21012;-70
2022/06/18 11:34:52;;;;;;;15.33;14.27;;;39.90;43.20;;;;;;5027419;28;20533;-70
2022/06/18 11:37:22;;;;;;;16.00;14.83;;;39.30;43.60;;;;;;5027174;28;21080;-69
2022/06/18 11:39:55;;;;;;;15.60;14.30;;;39.60;45.40;;;;;;5043638;28;20452;-69
2022/06/18 11:42:28;;;;;;;16.40;15.10;;;39.80;43.70;;;;;;5052243;28;20459;-69
2022/06/18 11:45:05;;;;;;;15.90;14.70;;;40.20;42.40;;;;;;5054887;28;20495;-69
2022/06/18 11:47:39;;;;;;;16.03;14.60;;;40.20;43.30;;;;;;5043561;28;20466;-69
2022/06/18 11:50:18;;;;;;;15.43;14.40;;;40.50;42.60;;;;;;5025746;28;20474;-69
2022/06/18 11:52:51;;;;;;;15.50;14.50;;;40.50;43.10;;;;;;5026140;28;20566;-69
2022/06/18 11:55:25;;;;;;;15.83;14.50;;;41.00;42.60;;;;;;5030481;28;20478;-70
2022/06/18 11:57:58;;;;;;;15.40;14.10;;;41.30;41.70;;;;;;5030331;28;20536;-69
2022/06/18 12:00:30;;;;;;;15.00;14.00;;;41.50;42.30;;;;;;5029151;28;20464;-69
2022/06/18 12:03:06;;;;;;;16.73;15.10;;;41.40;41.40;;;;;;5030207;28;20543;-69
2022/06/18 12:05:37;;;;;;;15.43;14.10;;;40.70;40.50;;;;;;5029682;28;20914;-69
2022/06/18 12:08:05;;;;;;;15.90;14.70;;;41.20;41.80;;;;;;5030078;28;20463;-70
2022/06/18 12:10:45;;;;;;;15.10;13.60;;;41.80;42.10;;;;;;5028483;28;20491;-70
2022/06/18 12:13:22;;;;;;;14.63;13.50;;;41.60;39.60;;;;;;5028737;28;20463;-70
2022/06/18 12:15:53;;;;;;;15.60;14.43;;;41.10;40.60;;;;;;5029966;28;20990;-69
2022/06/18 12:18:28;;;;;;;15.03;14.20;;;42.20;40.20;;;;;;5029533;28;20487;-70
2022/06/18 12:21:12;;;;;;;15.67;14.10;;;42.50;40.30;;;;;;5029898;28;20475;-69
2022/06/18 12:23:47;;;;;;;15.47;14.20;;;42.70;40.30;;;;;;5030341;28;20974;-69
2022/06/18 12:26:22;;;;;;;17.73;14.03;;;42.80;38.60;;;;;;5045576;28;20455;-70
2022/06/18 12:29:22;;;;;;;15.57;14.27;;;42.40;39.00;;;;;;5056478;28;20462;-70
2022/06/18 12:31:56;;;;;;;14.50;13.10;;;42.80;39.60;;;;;;5027107;28;21154;-70
2022/06/18 12:34:42;;;;;;;14.60;13.40;;;42.70;38.80;;;;;;5030411;28;20844;-69
2022/06/18 12:37:16;;;;;;;15.63;14.40;;;42.60;38.30;;;;;;5028710;28;20467;-70
2022/06/18 12:39:51;;;;;;;15.30;13.93;;;42.80;38.90;;;;;;5030298;28;20550;-69
2022/06/18 12:42:25;;;;;;;15.00;13.60;;;42.90;37.90;;;;;;5030123;28;20467;-69
2022/06/18 12:44:58;;;;;;;14.30;13.40;;;43.30;37.20;;;;;;5030352;28;20455;-70
2022/06/18 12:47:35;;;;;;;14.90;13.80;;;44.00;36.80;;;;;;5029944;28;20479;-70
2022/06/18 12:50:11;;;;;;;14.73;13.63;;;44.50;35.70;;;;;;5029136;28;21095;-70
2022/06/18 12:52:43;;;;;;;14.37;13.27;;;44.60;35.70;;;;;;5030717;28;20557;-70
2022/06/18 12:55:33;;;;;;;14.07;12.90;;;44.40;35.10;;;;;;5029782;28;20537;-70
2022/06/18 12:58:12;;;;;;;14.20;13.03;;;44.90;35.50;;;;;;5029881;28;20456;-70
2022/06/18 13:00:45;;;;;;;14.93;13.73;;;44.20;35.40;;;;;;5029408;28;20460;-69